Hebron, New Hampshire
Current Conditions -  °F | °C
As of 10:15 PM on Saturday 25 Oct 2014 (Local Time) from K1P1 Reporting Station
Overcast Overcast  
Wind Chill:   Ceiling: 6000
Heat Index:   Visibility: 7mi
Dew Point: 10°   Wind: 0mph
Humidity: 100%   Direction: NA
Pressure: 29.48"   Gusts: NA
Location:  43.69°N, 71.81°W
Report Text: K1P1 260215Z AUTO 00000KT 7SM SCT045 BKN060 OVC110 10/10 A2948 RMK AO2 T00950095
Loading
Personal Weather Stations






























Interactive Weather Map
Tropical Storm Tracking
New forecast layout! Learn more

10-Day Weather Forecast

Advertisements
Track Severe Weather on mobile